TAF Text Data
IDs:
Format:
Raw Decoded Include METAR

Data at: 1422 UTC 10 Jul 2020

KPQI 101341Z 1014/1112 VRB03KT P6SM SCT005
  TEMPO 1014/1015 BKN005
  FM101500 16007KT P6SM SCT040
  FM110400 17007KT P6SM SCT008 BKN022
  FM110700 16006KT 5SM BR VCSH OVC005